sensor_id;sensor_type;location;lat;lon;timestamp;P1;durP1;ratioP1;P2;durP2;ratioP2
20381;SDS011;10350;51.280;12.400;2023-08-06T00:01:14;41.25;;;39.03;;
20381;SDS011;10350;51.280;12.400;2023-08-06T00:03:40;42.10;;;39.70;;
20381;SDS011;10350;51.280;12.400;2023-08-06T00:06:06;37.72;;;35.70;;
20381;SDS011;10350;51.280;12.400;2023-08-06T00:08:32;38.22;;;36.17;;
20381;SDS011;10350;51.280;12.400;2023-08-06T00:10:58;38.85;;;36.75;;
20381;SDS011;10350;51.280;12.400;2023-08-06T00:13:24;38.03;;;36.03;;
20381;SDS011;10350;51.280;12.400;2023-08-06T00:15:50;40.40;;;38.28;;
20381;SDS011;10350;51.280;12.400;2023-08-06T00:18:16;37.72;;;35.72;;
20381;SDS011;10350;51.280;12.400;2023-08-06T00:20:45;38.47;;;36.47;;
20381;SDS011;10350;51.280;12.400;2023-08-06T00:23:14;34.95;;;33.05;;
20381;SDS011;10350;51.280;12.400;2023-08-06T00:25:42;37.10;;;35.05;;
20381;SDS011;10350;51.280;12.400;2023-08-06T00:28:11;37.15;;;35.15;;
20381;SDS011;10350;51.280;12.400;2023-08-06T00:30:40;37.70;;;35.38;;
20381;SDS011;10350;51.280;12.400;2023-08-06T00:33:17;34.03;;;32.22;;
20381;SDS011;10350;51.280;12.400;2023-08-06T00:35:43;33.70;;;31.90;;
20381;SDS011;10350;51.280;12.400;2023-08-06T00:38:15;35.22;;;33.35;;
20381;SDS011;10350;51.280;12.400;2023-08-06T00:40:41;32.63;;;30.90;;
20381;SDS011;10350;51.280;12.400;2023-08-06T00:43:13;34.25;;;32.40;;
20381;SDS011;10350;51.280;12.400;2023-08-06T00:45:39;32.70;;;30.80;;
20381;SDS011;10350;51.280;12.400;2023-08-06T00:48:05;32.28;;;30.55;;
20381;SDS011;10350;51.280;12.400;2023-08-06T00:50:32;32.78;;;31.08;;
20381;SDS011;10350;51.280;12.400;2023-08-06T00:53:01;33.85;;;31.65;;
20381;SDS011;10350;51.280;12.400;2023-08-06T00:55:27;33.92;;;32.13;;
20381;SDS011;10350;51.280;12.400;2023-08-06T00:57:53;35.05;;;33.15;;
20381;SDS011;10350;51.280;12.400;2023-08-06T01:00:21;32.95;;;31.05;;
20381;SDS011;10350;51.280;12.400;2023-08-06T01:02:48;35.20;;;33.30;;
20381;SDS011;10350;51.280;12.400;2023-08-06T01:05:14;33.05;;;31.27;;
20381;SDS011;10350;51.280;12.400;2023-08-06T01:10:14;32.60;;;30.85;;
20381;SDS011;10350;51.280;12.400;2023-08-06T01:15:28;32.50;;;30.80;;
20381;SDS011;10350;51.280;12.400;2023-08-06T01:17:54;32.28;;;30.55;;
20381;SDS011;10350;51.280;12.400;2023-08-06T01:20:21;34.17;;;32.38;;
20381;SDS011;10350;51.280;12.400;2023-08-06T01:22:47;34.65;;;32.65;;
20381;SDS011;10350;51.280;12.400;2023-08-06T01:25:13;35.80;;;33.85;;
20381;SDS011;10350;51.280;12.400;2023-08-06T01:27:50;32.70;;;30.90;;
20381;SDS011;10350;51.280;12.400;2023-08-06T01:30:18;33.78;;;31.45;;
20381;SDS011;10350;51.280;12.400;2023-08-06T01:32:45;34.05;;;32.13;;
20381;SDS011;10350;51.280;12.400;2023-08-06T01:35:12;34.45;;;32.55;;
20381;SDS011;10350;51.280;12.400;2023-08-06T01:37:42;34.15;;;32.30;;
20381;SDS011;10350;51.280;12.400;2023-08-06T01:40:20;34.45;;;32.63;;
20381;SDS011;10350;51.280;12.400;2023-08-06T01:42:52;36.70;;;34.70;;
20381;SDS011;10350;51.280;12.400;2023-08-06T01:45:18;35.22;;;33.33;;
20381;SDS011;10350;51.280;12.400;2023-08-06T01:47:44;33.10;;;31.33;;
20381;SDS011;10350;51.280;12.400;2023-08-06T01:50:10;35.38;;;33.47;;
20381;SDS011;10350;51.280;12.400;2023-08-06T01:52:36;35.40;;;33.38;;
20381;SDS011;10350;51.280;12.400;2023-08-06T01:55:02;37.22;;;34.88;;
20381;SDS011;10350;51.280;12.400;2023-08-06T01:57:28;35.22;;;33.33;;
20381;SDS011;10350;51.280;12.400;2023-08-06T01:59:54;36.13;;;34.17;;
20381;SDS011;10350;51.280;12.400;2023-08-06T02:02:20;36.28;;;34.35;;
20381;SDS011;10350;51.280;12.400;2023-08-06T02:04:46;37.28;;;35.25;;
20381;SDS011;10350;51.280;12.400;2023-08-06T02:07:12;36.15;;;34.20;;
20381;SDS011;10350;51.280;12.400;2023-08-06T02:09:38;35.03;;;33.10;;
20381;SDS011;10350;51.280;12.400;2023-08-06T02:12:05;38.33;;;36.25;;
20381;SDS011;10350;51.280;12.400;2023-08-06T02:14:39;37.13;;;34.97;;
20381;SDS011;10350;51.280;12.400;2023-08-06T02:17:05;33.45;;;31.55;;
20381;SDS011;10350;51.280;12.400;2023-08-06T02:19:31;34.78;;;32.92;;
20381;SDS011;10350;51.280;12.400;2023-08-06T02:21:57;35.95;;;33.92;;
20381;SDS011;10350;51.280;12.400;2023-08-06T02:24:23;37.53;;;35.47;;
20381;SDS011;10350;51.280;12.400;2023-08-06T02:26:49;37.50;;;35.50;;
20381;SDS011;10350;51.280;12.400;2023-08-06T02:29:16;35.95;;;34.00;;
20381;SDS011;10350;51.280;12.400;2023-08-06T02:31:42;38.45;;;35.78;;
20381;SDS011;10350;51.280;12.400;2023-08-06T02:34:08;37.80;;;35.72;;
20381;SDS011;10350;51.280;12.400;2023-08-06T02:36:35;36.38;;;34.42;;
20381;SDS011;10350;51.280;12.400;2023-08-06T02:39:01;37.30;;;35.25;;
20381;SDS011;10350;51.280;12.400;2023-08-06T02:41:27;38.85;;;36.72;;
20381;SDS011;10350;51.280;12.400;2023-08-06T02:43:53;33.75;;;31.98;;
20381;SDS011;10350;51.280;12.400;2023-08-06T02:46:19;33.88;;;32.08;;
20381;SDS011;10350;51.280;12.400;2023-08-06T02:48:44;38.17;;;35.97;;
20381;SDS011;10350;51.280;12.400;2023-08-06T02:51:11;37.05;;;35.05;;
20381;SDS011;10350;51.280;12.400;2023-08-06T02:53:37;36.03;;;34.10;;
20381;SDS011;10350;51.280;12.400;2023-08-06T02:56:03;36.28;;;34.28;;
20381;SDS011;10350;51.280;12.400;2023-08-06T02:58:29;35.53;;;33.53;;
20381;SDS011;10350;51.280;12.400;2023-08-06T03:00:58;33.65;;;31.85;;
20381;SDS011;10350;51.280;12.400;2023-08-06T03:03:24;35.05;;;33.15;;
20381;SDS011;10350;51.280;12.400;2023-08-06T03:05:53;36.78;;;34.67;;
20381;SDS011;10350;51.280;12.400;2023-08-06T03:08:19;34.22;;;32.40;;
20381;SDS011;10350;51.280;12.400;2023-08-06T03:10:47;33.40;;;31.58;;
20381;SDS011;10350;51.280;12.400;2023-08-06T03:13:13;35.38;;;33.42;;
20381;SDS011;10350;51.280;12.400;2023-08-06T03:15:39;34.88;;;32.90;;
20381;SDS011;10350;51.280;12.400;2023-08-06T03:18:05;36.35;;;34.35;;
20381;SDS011;10350;51.280;12.400;2023-08-06T03:20:34;34.42;;;32.55;;
20381;SDS011;10350;51.280;12.400;2023-08-06T03:23:00;34.90;;;33.00;;
20381;SDS011;10350;51.280;12.400;2023-08-06T03:25:26;34.70;;;32.72;;
20381;SDS011;10350;51.280;12.400;2023-08-06T03:27:52;35.83;;;33.80;;
20381;SDS011;10350;51.280;12.400;2023-08-06T03:30:18;36.38;;;34.20;;
20381;SDS011;10350;51.280;12.400;2023-08-06T03:32:44;34.45;;;32.55;;
20381;SDS011;10350;51.280;12.400;2023-08-06T03:35:10;33.75;;;31.90;;
20381;SDS011;10350;51.280;12.400;2023-08-06T03:37:36;36.38;;;34.03;;
20381;SDS011;10350;51.280;12.400;2023-08-06T03:40:02;36.38;;;34.28;;
20381;SDS011;10350;51.280;12.400;2023-08-06T03:42:28;36.15;;;34.17;;
20381;SDS011;10350;51.280;12.400;2023-08-06T03:44:54;35.38;;;33.38;;
20381;SDS011;10350;51.280;12.400;2023-08-06T03:47:20;35.90;;;33.90;;
20381;SDS011;10350;51.280;12.400;2023-08-06T03:49:46;35.13;;;33.22;;
20381;SDS011;10350;51.280;12.400;2023-08-06T03:52:14;34.78;;;32.83;;
20381;SDS011;10350;51.280;12.400;2023-08-06T03:54:40;34.08;;;32.17;;
20381;SDS011;10350;51.280;12.400;2023-08-06T03:57:08;33.95;;;32.13;;
20381;SDS011;10350;51.280;12.400;2023-08-06T03:59:36;34.38;;;32.38;;
20381;SDS011;10350;51.280;12.400;2023-08-06T04:02:02;35.92;;;33.97;;
20381;SDS011;10350;51.280;12.400;2023-08-06T04:04:28;38.50;;;35.92;;
20381;SDS011;10350;51.280;12.400;2023-08-06T04:06:54;35.60;;;33.60;;
20381;SDS011;10350;51.280;12.400;2023-08-06T04:09:20;35.55;;;33.65;;
20381;SDS011;10350;51.280;12.400;2023-08-06T04:11:46;32.40;;;30.63;;
20381;SDS011;10350;51.280;12.400;2023-08-06T04:14:15;34.55;;;32.65;;
20381;SDS011;10350;51.280;12.400;2023-08-06T04:16:41;31.52;;;29.83;;
20381;SDS011;10350;51.280;12.400;2023-08-06T04:19:10;34.78;;;32.90;;
20381;SDS011;10350;51.280;12.400;2023-08-06T04:21:36;33.92;;;32.03;;
20381;SDS011;10350;51.280;12.400;2023-08-06T04:24:02;34.58;;;32.67;;
20381;SDS011;10350;51.280;12.400;2023-08-06T04:26:28;35.95;;;34.05;;
20381;SDS011;10350;51.280;12.400;2023-08-06T04:28:54;35.55;;;32.05;;
20381;SDS011;10350;51.280;12.400;2023-08-06T04:31:21;33.95;;;32.17;;
20381;SDS011;10350;51.280;12.400;2023-08-06T04:33:49;33.92;;;32.15;;
20381;SDS011;10350;51.280;12.400;2023-08-06T04:36:15;33.50;;;31.73;;
20381;SDS011;10350;51.280;12.400;2023-08-06T04:38:41;33.90;;;32.15;;
20381;SDS011;10350;51.280;12.400;2023-08-06T04:41:10;33.75;;;31.95;;
20381;SDS011;10350;51.280;12.400;2023-08-06T04:43:36;32.75;;;30.95;;
20381;SDS011;10350;51.280;12.400;2023-08-06T04:46:02;34.05;;;32.22;;
20381;SDS011;10350;51.280;12.400;2023-08-06T04:48:28;34.33;;;32.50;;
20381;SDS011;10350;51.280;12.400;2023-08-06T04:50:54;32.97;;;31.15;;
20381;SDS011;10350;51.280;12.400;2023-08-06T04:53:23;34.17;;;32.38;;
20381;SDS011;10350;51.280;12.400;2023-08-06T04:56:04;32.22;;;30.52;;
20381;SDS011;10350;51.280;12.400;2023-08-06T04:58:33;35.28;;;33.38;;
20381;SDS011;10350;51.280;12.400;2023-08-06T05:01:01;32.58;;;30.90;;
20381;SDS011;10350;51.280;12.400;2023-08-06T05:03:27;34.80;;;32.80;;
20381;SDS011;10350;51.280;12.400;2023-08-06T05:05:58;33.80;;;32.00;;
20381;SDS011;10350;51.280;12.400;2023-08-06T05:08:24;31.58;;;29.88;;
20381;SDS011;10350;51.280;12.400;2023-08-06T05:10:50;32.17;;;30.48;;
20381;SDS011;10350;51.280;12.400;2023-08-06T05:13:16;33.63;;;31.83;;
20381;SDS011;10350;51.280;12.400;2023-08-06T05:15:47;35.45;;;33.63;;
20381;SDS011;10350;51.280;12.400;2023-08-06T05:18:15;33.15;;;31.38;;
20381;SDS011;10350;51.280;12.400;2023-08-06T05:20:41;34.50;;;32.70;;
20381;SDS011;10350;51.280;12.400;2023-08-06T05:23:08;33.22;;;31.42;;
20381;SDS011;10350;51.280;12.400;2023-08-06T05:25:34;33.97;;;32.10;;
20381;SDS011;10350;51.280;12.400;2023-08-06T05:28:01;33.38;;;31.58;;
20381;SDS011;10350;51.280;12.400;2023-08-06T05:30:27;35.00;;;32.95;;
20381;SDS011;10350;51.280;12.400;2023-08-06T05:32:53;35.75;;;33.78;;
20381;SDS011;10350;51.280;12.400;2023-08-06T05:35:20;34.95;;;33.15;;
20381;SDS011;10350;51.280;12.400;2023-08-06T05:37:46;36.55;;;34.45;;
20381;SDS011;10350;51.280;12.400;2023-08-06T05:40:12;33.28;;;31.58;;
20381;SDS011;10350;51.280;12.400;2023-08-06T05:42:46;34.95;;;33.13;;
20381;SDS011;10350;51.280;12.400;2023-08-06T05:45:12;34.67;;;32.55;;
20381;SDS011;10350;51.280;12.400;2023-08-06T05:47:38;34.92;;;33.13;;
20381;SDS011;10350;51.280;12.400;2023-08-06T05:50:04;37.47;;;35.50;;
20381;SDS011;10350;51.280;12.400;2023-08-06T05:52:32;38.25;;;36.08;;
20381;SDS011;10350;51.280;12.400;2023-08-06T05:55:16;40.13;;;38.00;;
20381;SDS011;10350;51.280;12.400;2023-08-06T05:57:42;37.42;;;35.45;;
20381;SDS011;10350;51.280;12.400;2023-08-06T06:00:17;40.72;;;38.53;;
20381;SDS011;10350;51.280;12.400;2023-08-06T06:06:38;33.72;;;31.92;;
20381;SDS011;10350;51.280;12.400;2023-08-06T07:02:32;45.88;;;43.40;;
20381;SDS011;10350;51.280;12.400;2023-08-06T07:05:08;43.40;;;41.10;;
20381;SDS011;10350;51.280;12.400;2023-08-06T07:37:04;40.97;;;38.88;;
20381;SDS011;10350;51.280;12.400;2023-08-06T07:39:53;41.13;;;39.03;;
20381;SDS011;10350;51.280;12.400;2023-08-06T07:45:21;41.05;;;38.95;;
20381;SDS011;10350;51.280;12.400;2023-08-06T07:47:56;39.00;;;37.00;;
20381;SDS011;10350;51.280;12.400;2023-08-06T07:50:37;39.20;;;37.20;;
20381;SDS011;10350;51.280;12.400;2023-08-06T07:59:35;41.60;;;39.40;;
20381;SDS011;10350;51.280;12.400;2023-08-06T08:05:45;42.35;;;40.15;;
20381;SDS011;10350;51.280;12.400;2023-08-06T08:08:32;40.90;;;38.75;;
20381;SDS011;10350;51.280;12.400;2023-08-06T08:11:20;40.42;;;38.25;;
20381;SDS011;10350;51.280;12.400;2023-08-06T08:16:52;40.47;;;38.38;;
20381;SDS011;10350;51.280;12.400;2023-08-06T08:19:22;41.28;;;39.17;;
20381;SDS011;10350;51.280;12.400;2023-08-06T08:21:50;42.08;;;39.90;;
20381;SDS011;10350;51.280;12.400;2023-08-06T08:24:16;39.53;;;37.50;;
20381;SDS011;10350;51.280;12.400;2023-08-06T08:39:44;42.28;;;39.88;;
20381;SDS011;10350;51.280;12.400;2023-08-06T08:42:14;42.38;;;40.17;;
20381;SDS011;10350;51.280;12.400;2023-08-06T08:50:55;46.45;;;44.05;;
20381;SDS011;10350;51.280;12.400;2023-08-06T08:56:27;46.78;;;44.17;;
20381;SDS011;10350;51.280;12.400;2023-08-06T09:01:28;44.88;;;42.53;;
20381;SDS011;10350;51.280;12.400;2023-08-06T09:03:57;51.83;;;49.13;;
20381;SDS011;10350;51.280;12.400;2023-08-06T09:06:26;45.80;;;43.42;;
20381;SDS011;10350;51.280;12.400;2023-08-06T09:09:08;44.30;;;42.00;;
20381;SDS011;10350;51.280;12.400;2023-08-06T09:14:50;46.03;;;43.63;;
20381;SDS011;10350;51.280;12.400;2023-08-06T09:17:30;49.85;;;47.25;;
20381;SDS011;10350;51.280;12.400;2023-08-06T09:29:45;51.05;;;48.40;;
20381;SDS011;10350;51.280;12.400;2023-08-06T09:32:12;58.95;;;55.88;;
20381;SDS011;10350;51.280;12.400;2023-08-06T09:43:47;47.63;;;45.15;;
20381;SDS011;10350;51.280;12.400;2023-08-06T09:46:16;48.25;;;45.78;;
20381;SDS011;10350;51.280;12.400;2023-08-06T09:49:02;49.35;;;46.80;;
20381;SDS011;10350;51.280;12.400;2023-08-06T09:51:34;49.28;;;46.67;;
20381;SDS011;10350;51.280;12.400;2023-08-06T09:54:00;48.00;;;45.47;;
20381;SDS011;10350;51.280;12.400;2023-08-06T09:56:27;48.03;;;45.53;;
20381;SDS011;10350;51.280;12.400;2023-08-06T09:58:54;45.55;;;43.17;;
20381;SDS011;10350;51.280;12.400;2023-08-06T10:01:20;45.53;;;42.90;;
20381;SDS011;10350;51.280;12.400;2023-08-06T10:03:49;45.70;;;43.25;;
20381;SDS011;10350;51.280;12.400;2023-08-06T10:06:19;45.22;;;42.88;;
20381;SDS011;10350;51.280;12.400;2023-08-06T10:08:49;48.92;;;46.25;;
20381;SDS011;10350;51.280;12.400;2023-08-06T10:23:35;45.22;;;42.83;;
20381;SDS011;10350;51.280;12.400;2023-08-06T10:28:56;49.42;;;46.83;;
20381;SDS011;10350;51.280;12.400;2023-08-06T10:38:17;56.80;;;53.83;;
20381;SDS011;10350;51.280;12.400;2023-08-06T10:41:00;54.27;;;51.43;;
20381;SDS011;10350;51.280;12.400;2023-08-06T11:08:53;53.38;;;50.58;;
20381;SDS011;10350;51.280;12.400;2023-08-06T11:15:10;50.10;;;47.45;;
20381;SDS011;10350;51.280;12.400;2023-08-06T11:17:39;50.70;;;48.00;;
20381;SDS011;10350;51.280;12.400;2023-08-06T11:20:06;50.10;;;47.45;;
20381;SDS011;10350;51.280;12.400;2023-08-06T11:22:33;52.05;;;49.30;;
20381;SDS011;10350;51.280;12.400;2023-08-06T11:24:59;55.65;;;52.65;;
20381;SDS011;10350;51.280;12.400;2023-08-06T11:27:28;54.15;;;51.35;;
20381;SDS011;10350;51.280;12.400;2023-08-06T11:29:54;51.30;;;48.45;;
20381;SDS011;10350;51.280;12.400;2023-08-06T11:32:20;51.88;;;49.15;;
20381;SDS011;10350;51.280;12.400;2023-08-06T11:34:46;50.08;;;47.42;;
20381;SDS011;10350;51.280;12.400;2023-08-06T11:37:12;51.63;;;48.92;;
20381;SDS011;10350;51.280;12.400;2023-08-06T11:39:38;53.22;;;50.45;;
20381;SDS011;10350;51.280;12.400;2023-08-06T11:42:04;50.50;;;47.58;;
20381;SDS011;10350;51.280;12.400;2023-08-06T11:44:31;52.20;;;49.50;;
20381;SDS011;10350;51.280;12.400;2023-08-06T11:47:01;52.85;;;50.05;;
20381;SDS011;10350;51.280;12.400;2023-08-06T11:49:37;49.63;;;46.92;;
20381;SDS011;10350;51.280;12.400;2023-08-06T11:52:10;52.70;;;49.90;;
20381;SDS011;10350;51.280;12.400;2023-08-06T11:54:43;48.40;;;45.80;;
20381;SDS011;10350;51.280;12.400;2023-08-06T11:57:10;49.78;;;47.15;;
20381;SDS011;10350;51.280;12.400;2023-08-06T11:59:42;49.13;;;46.53;;
20381;SDS011;10350;51.280;12.400;2023-08-06T12:02:20;52.80;;;49.97;;
20381;SDS011;10350;51.280;12.400;2023-08-06T12:05:04;52.80;;;50.00;;
20381;SDS011;10350;51.280;12.400;2023-08-06T12:07:39;53.22;;;50.42;;
20381;SDS011;10350;51.280;12.400;2023-08-06T12:10:08;54.40;;;51.50;;
20381;SDS011;10350;51.280;12.400;2023-08-06T12:12:37;50.63;;;48.00;;
20381;SDS011;10350;51.280;12.400;2023-08-06T12:15:04;52.95;;;50.17;;
20381;SDS011;10350;51.280;12.400;2023-08-06T12:17:31;60.85;;;57.63;;
20381;SDS011;10350;51.280;12.400;2023-08-06T12:19:57;62.88;;;59.47;;
20381;SDS011;10350;51.280;12.400;2023-08-06T12:22:23;61.88;;;58.58;;
20381;SDS011;10350;51.280;12.400;2023-08-06T12:24:49;57.17;;;54.15;;
20381;SDS011;10350;51.280;12.400;2023-08-06T12:27:15;58.75;;;55.65;;
20381;SDS011;10350;51.280;12.400;2023-08-06T12:29:45;58.25;;;54.90;;
20381;SDS011;10350;51.280;12.400;2023-08-06T12:32:11;56.53;;;53.60;;
20381;SDS011;10350;51.280;12.400;2023-08-06T12:34:38;52.58;;;49.78;;
20381;SDS011;10350;51.280;12.400;2023-08-06T12:37:04;54.15;;;51.30;;
20381;SDS011;10350;51.280;12.400;2023-08-06T12:39:31;55.72;;;52.83;;
20381;SDS011;10350;51.280;12.400;2023-08-06T12:41:58;51.65;;;48.95;;
20381;SDS011;10350;51.280;12.400;2023-08-06T12:44:24;54.88;;;52.03;;
20381;SDS011;10350;51.280;12.400;2023-08-06T12:47:08;56.63;;;53.67;;
20381;SDS011;10350;51.280;12.400;2023-08-06T12:49:43;56.42;;;53.47;;
20381;SDS011;10350;51.280;12.400;2023-08-06T12:52:15;58.47;;;55.17;;
20381;SDS011;10350;51.280;12.400;2023-08-06T12:54:44;62.70;;;59.38;;
20381;SDS011;10350;51.280;12.400;2023-08-06T12:57:11;53.80;;;50.92;;
20381;SDS011;10350;51.280;12.400;2023-08-06T12:59:37;54.13;;;51.28;;
20381;SDS011;10350;51.280;12.400;2023-08-06T13:02:06;58.65;;;55.58;;
20381;SDS011;10350;51.280;12.400;2023-08-06T13:04:35;54.53;;;51.63;;
20381;SDS011;10350;51.280;12.400;2023-08-06T13:07:01;58.85;;;55.75;;
20381;SDS011;10350;51.280;12.400;2023-08-06T13:09:27;57.83;;;54.35;;
20381;SDS011;10350;51.280;12.400;2023-08-06T13:11:54;54.00;;;51.15;;
20381;SDS011;10350;51.280;12.400;2023-08-06T13:14:20;50.42;;;47.75;;
20381;SDS011;10350;51.280;12.400;2023-08-06T13:16:46;47.78;;;45.22;;
20381;SDS011;10350;51.280;12.400;2023-08-06T13:19:12;49.25;;;46.75;;
20381;SDS011;10350;51.280;12.400;2023-08-06T13:24:08;52.50;;;49.70;;
20381;SDS011;10350;51.280;12.400;2023-08-06T13:26:34;55.20;;;52.25;;
20381;SDS011;10350;51.280;12.400;2023-08-06T13:29:00;50.60;;;47.90;;
20381;SDS011;10350;51.280;12.400;2023-08-06T13:31:27;49.53;;;46.95;;
20381;SDS011;10350;51.280;12.400;2023-08-06T13:33:54;50.33;;;47.72;;
20381;SDS011;10350;51.280;12.400;2023-08-06T13:36:22;53.63;;;50.83;;
20381;SDS011;10350;51.280;12.400;2023-08-06T13:38:48;47.08;;;44.65;;
20381;SDS011;10350;51.280;12.400;2023-08-06T13:41:14;47.95;;;45.45;;
20381;SDS011;10350;51.280;12.400;2023-08-06T13:43:40;48.85;;;46.35;;
20381;SDS011;10350;51.280;12.400;2023-08-06T13:46:06;50.00;;;46.85;;
20381;SDS011;10350;51.280;12.400;2023-08-06T13:48:32;50.10;;;47.50;;
20381;SDS011;10350;51.280;12.400;2023-08-06T13:50:58;50.33;;;47.72;;
20381;SDS011;10350;51.280;12.400;2023-08-06T13:53:24;48.35;;;45.85;;
20381;SDS011;10350;51.280;12.400;2023-08-06T13:55:54;48.78;;;46.10;;
20381;SDS011;10350;51.280;12.400;2023-08-06T13:58:20;51.28;;;48.63;;
20381;SDS011;10350;51.280;12.400;2023-08-06T14:00:46;49.17;;;46.58;;
20381;SDS011;10350;51.280;12.400;2023-08-06T14:03:12;53.63;;;50.72;;
20381;SDS011;10350;51.280;12.400;2023-08-06T14:05:38;54.35;;;51.55;;
20381;SDS011;10350;51.280;12.400;2023-08-06T14:08:04;51.45;;;48.75;;
20381;SDS011;10350;51.280;12.400;2023-08-06T14:10:30;51.95;;;49.25;;
20381;SDS011;10350;51.280;12.400;2023-08-06T14:12:56;53.40;;;50.60;;
20381;SDS011;10350;51.280;12.400;2023-08-06T14:15:22;52.58;;;49.83;;
20381;SDS011;10350;51.280;12.400;2023-08-06T14:17:48;52.03;;;49.28;;
20381;SDS011;10350;51.280;12.400;2023-08-06T14:20:14;53.40;;;50.55;;
20381;SDS011;10350;51.280;12.400;2023-08-06T14:22:40;55.83;;;52.88;;
20381;SDS011;10350;51.280;12.400;2023-08-06T14:25:06;52.40;;;49.67;;
20381;SDS011;10350;51.280;12.400;2023-08-06T14:27:32;51.80;;;49.10;;
20381;SDS011;10350;51.280;12.400;2023-08-06T14:29:58;53.40;;;50.55;;
20381;SDS011;10350;51.280;12.400;2023-08-06T14:32:26;51.45;;;48.75;;
20381;SDS011;10350;51.280;12.400;2023-08-06T14:34:52;55.50;;;52.60;;
20381;SDS011;10350;51.280;12.400;2023-08-06T14:37:18;52.25;;;49.50;;
20381;SDS011;10350;51.280;12.400;2023-08-06T14:39:44;54.65;;;51.70;;
20381;SDS011;10350;51.280;12.400;2023-08-06T14:42:10;53.25;;;50.35;;
20381;SDS011;10350;51.280;12.400;2023-08-06T14:44:36;55.20;;;52.30;;
20381;SDS011;10350;51.280;12.400;2023-08-06T14:47:02;53.20;;;50.42;;
20381;SDS011;10350;51.280;12.400;2023-08-06T14:49:28;53.60;;;50.80;;
20381;SDS011;10350;51.280;12.400;2023-08-06T14:51:54;51.83;;;49.13;;
20381;SDS011;10350;51.280;12.400;2023-08-06T14:54:24;53.05;;;50.15;;
20381;SDS011;10350;51.280;12.400;2023-08-06T14:56:50;53.53;;;50.67;;
20381;SDS011;10350;51.280;12.400;2023-08-06T14:59:16;52.35;;;49.65;;
20381;SDS011;10350;51.280;12.400;2023-08-06T15:01:42;51.90;;;49.20;;
20381;SDS011;10350;51.280;12.400;2023-08-06T15:04:07;56.75;;;53.65;;
20381;SDS011;10350;51.280;12.400;2023-08-06T15:06:33;57.70;;;54.70;;
20381;SDS011;10350;51.280;12.400;2023-08-06T15:08:59;55.90;;;53.00;;
20381;SDS011;10350;51.280;12.400;2023-08-06T15:11:26;57.40;;;54.40;;
20381;SDS011;10350;51.280;12.400;2023-08-06T15:13:52;54.42;;;51.53;;
20381;SDS011;10350;51.280;12.400;2023-08-06T15:16:18;58.83;;;55.67;;
20381;SDS011;10350;51.280;12.400;2023-08-06T15:18:44;55.92;;;53.03;;
20381;SDS011;10350;51.280;12.400;2023-08-06T15:21:10;53.70;;;50.90;;
20381;SDS011;10350;51.280;12.400;2023-08-06T15:23:36;60.22;;;57.03;;
20381;SDS011;10350;51.280;12.400;2023-08-06T15:26:02;57.53;;;54.53;;
20381;SDS011;10350;51.280;12.400;2023-08-06T15:28:28;55.05;;;52.15;;
20381;SDS011;10350;51.280;12.400;2023-08-06T15:30:55;53.95;;;51.10;;
20381;SDS011;10350;51.280;12.400;2023-08-06T15:33:21;56.50;;;53.50;;
20381;SDS011;10350;51.280;12.400;2023-08-06T15:35:47;52.45;;;49.72;;
20381;SDS011;10350;51.280;12.400;2023-08-06T15:38:13;51.20;;;48.58;;
20381;SDS011;10350;51.280;12.400;2023-08-06T15:40:39;52.13;;;49.42;;
20381;SDS011;10350;51.280;12.400;2023-08-06T15:43:05;50.92;;;48.22;;
20381;SDS011;10350;51.280;12.400;2023-08-06T15:45:31;53.45;;;50.65;;
20381;SDS011;10350;51.280;12.400;2023-08-06T15:47:57;52.22;;;49.53;;
20381;SDS011;10350;51.280;12.400;2023-08-06T15:50:23;52.15;;;49.38;;
20381;SDS011;10350;51.280;12.400;2023-08-06T15:52:49;55.90;;;53.00;;
20381;SDS011;10350;51.280;12.400;2023-08-06T15:55:15;54.55;;;51.67;;
20381;SDS011;10350;51.280;12.400;2023-08-06T15:57:41;52.92;;;50.13;;
20381;SDS011;10350;51.280;12.400;2023-08-06T16:00:08;53.37;;;50.57;;
20381;SDS011;10350;51.280;12.400;2023-08-06T16:02:35;53.72;;;50.92;;
20381;SDS011;10350;51.280;12.400;2023-08-06T16:05:01;51.35;;;48.65;;
20381;SDS011;10350;51.280;12.400;2023-08-06T16:07:27;53.60;;;50.80;;
20381;SDS011;10350;51.280;12.400;2023-08-06T16:09:53;53.65;;;50.85;;
20381;SDS011;10350;51.280;12.400;2023-08-06T16:12:22;53.88;;;50.92;;
20381;SDS011;10350;51.280;12.400;2023-08-06T16:15:08;47.55;;;44.97;;
20381;SDS011;10350;51.280;12.400;2023-08-06T16:21:29;51.78;;;49.08;;
20381;SDS011;10350;51.280;12.400;2023-08-06T16:27:06;50.00;;;47.38;;
20381;SDS011;10350;51.280;12.400;2023-08-06T16:29:33;46.67;;;44.22;;
20381;SDS011;10350;51.280;12.400;2023-08-06T16:31:59;45.15;;;42.83;;
20381;SDS011;10350;51.280;12.400;2023-08-06T16:34:25;43.30;;;40.95;;
20381;SDS011;10350;51.280;12.400;2023-08-06T16:36:51;40.55;;;38.45;;
20381;SDS011;10350;51.280;12.400;2023-08-06T16:39:17;50.28;;;47.65;;
20381;SDS011;10350;51.280;12.400;2023-08-06T16:44:11;56.08;;;52.85;;
20381;SDS011;10350;51.280;12.400;2023-08-06T16:46:37;51.53;;;48.80;;
20381;SDS011;10350;51.280;12.400;2023-08-06T16:49:03;48.33;;;45.83;;
20381;SDS011;10350;51.280;12.400;2023-08-06T16:51:29;53.22;;;49.83;;
20381;SDS011;10350;51.280;12.400;2023-08-06T16:53:55;63.45;;;59.97;;
20381;SDS011;10350;51.280;12.400;2023-08-06T17:44:21;33.65;;;31.88;;
20381;SDS011;10350;51.280;12.400;2023-08-06T17:47:16;30.67;;;29.13;;
20381;SDS011;10350;51.280;12.400;2023-08-06T17:50:06;29.58;;;27.90;;
20381;SDS011;10350;51.280;12.400;2023-08-06T19:06:53;32.30;;;30.60;;
20381;SDS011;10350;51.280;12.400;2023-08-06T19:12:33;32.40;;;30.70;;
20381;SDS011;10350;51.280;12.400;2023-08-06T19:14:59;33.03;;;30.85;;
20381;SDS011;10350;51.280;12.400;2023-08-06T19:17:25;31.25;;;29.65;;
20381;SDS011;10350;51.280;12.400;2023-08-06T19:22:54;31.05;;;29.45;;
20381;SDS011;10350;51.280;12.400;2023-08-06T19:25:23;31.95;;;30.23;;
20381;SDS011;10350;51.280;12.400;2023-08-06T19:27:52;31.60;;;29.95;;
20381;SDS011;10350;51.280;12.400;2023-08-06T19:39:34;33.58;;;31.88;;
20381;SDS011;10350;51.280;12.400;2023-08-06T19:45:29;36.33;;;34.22;;
20381;SDS011;10350;51.280;12.400;2023-08-06T19:48:01;34.47;;;32.67;;
20381;SDS011;10350;51.280;12.400;2023-08-06T19:53:27;35.05;;;33.15;;
20381;SDS011;10350;51.280;12.400;2023-08-06T20:35:44;33.20;;;31.20;;
20381;SDS011;10350;51.280;12.400;2023-08-06T22:16:38;36.28;;;34.38;;
